Flight Track Log - Related Links

Times and Time Zones

All times are in EST time to prevent confusion due to time zone crossing. See the N28KP flight status page for this flight to view local times or setup timezone preferences in your user account.

Time Position Orientation Groundspeed Altitude Reporting Facility
EST Latitude Longitude Course Direction KTS MPH feet Rate Location/Type
Wed 12:12:15 PM 46.6539 -111.8472 76° East 160 184 10,600  Level Salt Lake Center
Wed 12:13:00 PM 46.7091 -111.4008 78° East  Level Estimated
Wed 12:13:17 PM 46.6719 -111.7844 67° East 169 194 12,500  Level Salt Lake Center
Wed 12:14:00 PM 46.7258 -111.3036 76° East  Level Estimated
Wed 12:14:19 PM 46.6986 -111.7325 53° Northeast 166 191 14,500  Level Salt Lake Center
Wed 12:15:00 PM 46.7410 -111.2058 77° East  Level FlightAware Approximate
Wed 12:15:20 PM 46.7267 -111.6825 51° Northeast 162 186 16,100  Level Salt Lake Center
Wed 12:16:00 PM 46.7576 -111.1085 76° East  Level Estimated
Wed 12:16:22 PM 46.7606 -111.6111 55° Northeast 175 201 18,000  Level Salt Lake Center
Wed 12:17:00 PM 46.7742 -111.0112 76° East  Level FlightAware Approximate
Wed 12:17:24 PM 46.7739 -111.5264 77° East 215 247 19,400  Level Salt Lake Center
Wed 12:18:26 PM 46.7881 -111.4381 77° East 223 257 20,800 774 Climbing Salt Lake Center
Wed 12:19:28 PM 46.8036 -111.3389 77° East 243 280 21,000 98 Climbing Salt Lake Center
Wed 12:20:29 PM 46.8222 -111.2239 77° East 281 323 21,000  Level Salt Lake Center
Wed 12:21:31 PM 46.8419 -111.1058 76° East 297 342 21,000  Level Salt Lake Center
Wed 12:22:33 PM 46.8650 -110.9636 77° East 300 345 21,000  Level Salt Lake Center
Wed 12:23:35 PM 46.8864 -110.8428 75° East 305 351 21,000  Level Salt Lake Center
Wed 12:24:37 PM 46.9053 -110.7194 77° East 309 356 21,000  Level Salt Lake Center
Wed 12:25:38 PM 46.9236 -110.5986 77° East 309 356 21,000  Level Salt Lake Center
Wed 12:26:40 PM 46.9417 -110.4781 78° East 308 354 21,000  Level Salt Lake Center
Wed 12:27:42 PM 46.9561 -110.3597 80° East 303 349 21,000  Level Salt Lake Center
Wed 12:28:44 PM 46.9761 -110.2394 76° East 303 349 21,000  Level Salt Lake Center
Wed 12:29:45 PM 46.9983 -110.0969 77° East 303 349 21,000  Level Salt Lake Center
Wed 12:30:47 PM 47.0144 -109.9778 79° East 302 348 21,000  Level Salt Lake Center
Wed 12:31:49 PM 47.0306 -109.8614 78° East 299 344 21,000  Level Salt Lake Center
Wed 12:32:51 PM 47.0500 -109.7467 76° East 294 338 21,000  Level Salt Lake Center
Wed 12:33:53 PM 47.0689 -109.6319 76° East 293 337 21,000  Level Salt Lake Center
Wed 12:34:54 PM 47.0861 -109.5153 78° East 293 337 21,000  Level Salt Lake Center
Wed 12:35:56 PM 47.1067 -109.3775 78° East 291 335 21,000  Level Salt Lake Center
Wed 12:36:58 PM 47.1214 -109.2619 79° East 290 334 21,000  Level Salt Lake Center
Wed 12:38:00 PM 47.1339 -109.1478 81° East 288 331 21,000  Level Salt Lake Center
Wed 12:39:02 PM 47.1467 -109.0342 81° East 286 329 21,000  Level Salt Lake Center
Wed 12:41:00 PM 47.1734 -108.8393 78° East  Level Estimated
Wed 12:43:58 PM 47.2261 -108.4597 80° East 285 328 21,000  Level Salt Lake Center
Wed 12:45:00 PM 47.2417 -108.3417 79° East 296 341 21,000  Level Salt Lake Center
Wed 12:46:01 PM 47.2539 -108.2269 81° East 290 334 21,000  Level Salt Lake Center
Wed 12:47:03 PM 47.2686 -108.1119 79° East 288 331 21,000  Level Salt Lake Center
Wed 12:48:00 PM 47.2567 -108.1419 80° East  Level FlightAware Approximate
Wed 12:48:29 PM 47.2919 -107.9494 78° East 271 312 21,000  Level Salt Lake Center
Wed 12:49:00 PM 47.2682 -108.0421 80° East  Level FlightAware Approximate
Wed 12:49:31 PM 47.3011 -107.8214 84° East 284 327 21,000  Level Salt Lake Center
Wed 12:50:32 PM 47.3158 -107.7069 79° East 285 328 21,000  Level Salt Lake Center
Wed 12:51:34 PM 47.3325 -107.5925 78° East 286 329 21,000  Level Salt Lake Center
Wed 12:52:36 PM 47.3472 -107.4781 79° East 286 329 21,000  Level Salt Lake Center
Wed 12:53:37 PM 47.3631 -107.3631 78° East 286 329 21,000  Level Salt Lake Center
Wed 12:54:39 PM 47.3811 -107.2275 79° East 284 327 21,000  Level Salt Lake Center
Wed 12:55:41 PM 47.3936 -107.1136 81° East 282 325 21,000  Level Salt Lake Center
Wed 12:56:42 PM 47.4064 -106.9986 81° East 283 326 21,000  Level Salt Lake Center
Wed 12:57:44 PM 47.4183 -106.8850 81° East 283 326 21,000  Level Salt Lake Center
Wed 12:58:45 PM 47.4297 -106.7711 82° East 282 325 21,000  Level Salt Lake Center
Wed 12:59:49 PM 47.4439 -106.6583 79° East 281 323 21,000  Level Salt Lake Center
Wed 01:00:51 PM 47.4628 -106.5206 78° East 283 326 21,000  Level Salt Lake Center
Wed 01:01:53 PM 47.4758 -106.4072 80° East 283 326 21,000  Level Salt Lake Center
Wed 01:02:54 PM 47.4881 -106.2933 81° East 282 325 21,000  Level Salt Lake Center
Wed 01:03:56 PM 47.5014 -106.1789 80° East 282 325 21,000  Level Salt Lake Center
Wed 01:04:58 PM 47.5164 -106.0639 79° East 284 327 21,000  Level Salt Lake Center
Wed 01:05:59 PM 47.5281 -105.9472 82° East 286 329 21,000  Level Salt Lake Center
Wed 01:07:01 PM 47.5403 -105.8308 81° East 287 330 21,000 -439 Level Salt Lake Center
Wed 01:08:02 PM 47.5572 -105.6867 80° East 292 336 20,100 -1,073 Descending Salt Lake Center
Wed 01:09:04 PM 47.5689 -105.5622 82° East 298 343 18,800 -1,258 Descending Salt Lake Center
Wed 01:10:06 PM 47.5783 -105.4383 84° East 303 349 17,500 -1,268 Descending Salt Lake Center
Wed 01:11:07 PM 47.5900 -105.3203 82° East 298 343 16,200 -1,279 Descending Salt Lake Center

Login

Don't have an account? Register now (free) for customized features, flight alerts, and more!